Terminal Aerodrome Forecast
Issued by NWS

Home | Current Version | Previous Version | Text Only | Print | Product List | Glossary Off
Versions: 1 2 3 4 5 6 7 8 9 10 11 12 13 14 15 16 17 18 19

000
FTUS43 KMPX 211125
TAFRWF
TAF
KRWF 211125Z 2112/2212 30015G25KT P6SM BKN030
     FM211500 30022G32KT P6SM BKN040
     FM220200 32014G20KT P6SM SCT100
     FM220600 31010KT P6SM SCT250=

USA.gov is the U.S. government's official web portal to all federal, state and local government web resources and services.